Time;durP1;ratioP1;P1;durP2;ratioP2;P2;SDS_P1;SDS_P2;PMS_P1;PMS_P2;Temp;Humidity;BMP_temperature;BMP_pressure;BME280_temperature;BME280_humidity;BME280_pressure;Samples;Min_cycle;Max_cycle;Signal;HPM_P1;HPM_P2
2023/02/16 00:00:41;;;;;;;;;;;;;;;-3.05;100.00;97770.94;5070383;28;19916;-70
2023/02/16 00:03:11;;;;;;;;;;;;;;;-2.96;100.00;97770.22;5068657;28;19924;-69
2023/02/16 00:05:36;;;;;;;;;;;;;;;-3.16;100.00;97768.16;5071135;28;19921;-67
2023/02/16 00:08:01;;;;;;;;;;;;;;;-3.22;100.00;97768.31;5069717;28;19921;-68
2023/02/16 00:10:30;;;;;;;;;;;;;;;-3.63;100.00;97770.53;5058520;28;19921;-68
2023/02/16 00:15:40;;;;;;;;;;;;;;;-4.05;100.00;97767.31;5063211;28;20020;-66
2023/02/16 00:18:18;;;;;;;;;;;;;;;-3.98;100.00;97769.00;5058961;28;20007;-66
2023/02/16 00:20:43;;;;;;;;;;;;;;;-3.96;100.00;97769.56;5063315;28;19921;-69
2023/02/16 00:23:09;;;;;;;;;;;;;;;-4.03;100.00;97770.56;5057841;28;19928;-68
2023/02/16 00:25:35;;;;;;;;;;;;;;;-4.16;100.00;97765.56;5068429;28;19920;-70
2023/02/16 00:28:03;;;;;;;;;;;;;;;-4.08;100.00;97767.78;5070974;28;19980;-69
2023/02/16 00:30:28;;;;;;;;;;;;;;;-3.92;100.00;97768.81;5064087;28;19992;-68
2023/02/16 00:32:53;;;;;;;;;;;;;;;-3.71;100.00;97764.56;5045508;28;19924;-65
2023/02/16 00:35:20;;;;;;;;;;;;;;;-3.53;100.00;97757.25;5058062;28;20292;-67
2023/02/16 00:37:46;;;;;;;;;;;;;;;-3.32;100.00;97753.75;5062256;28;19916;-67
2023/02/16 00:40:11;;;;;;;;;;;;;;;-3.21;100.00;97754.69;5053186;28;20012;-66
2023/02/16 00:42:37;;;;;;;;;;;;;;;-3.12;100.00;97752.38;5062605;28;19916;-68
2023/02/16 00:45:03;;;;;;;;;;;;;;;-3.29;100.00;97755.94;5058509;28;19931;-71
2023/02/16 00:47:36;;;;;;;;;;;;;;;-3.22;100.00;97753.09;5041495;28;19917;-67
2023/02/16 00:50:03;;;;;;;;;;;;;;;-3.21;100.00;97761.91;5044838;28;19978;-71
2023/02/16 00:52:36;;;;;;;;;;;;;;;-3.07;100.00;97760.47;5060504;28;20027;-67
2023/02/16 00:55:03;;;;;;;;;;;;;;;-3.14;100.00;97765.22;5062329;28;19996;-71
2023/02/16 00:57:31;;;;;;;;;;;;;;;-3.16;100.00;97762.78;5063067;28;19917;-68
2023/02/16 01:00:11;;;;;;;;;;;;;;;-3.08;100.00;97770.38;5063021;28;19921;-65
2023/02/16 01:02:36;;;;;;;;;;;;;;;-3.02;100.00;97767.75;5078461;28;20336;-66
2023/02/16 01:05:02;;;;;;;;;;;;;;;-3.08;100.00;97773.06;5061774;28;19921;-69
2023/02/16 01:12:55;;;;;;;;;;;;;;;-3.25;100.00;97776.91;5062922;28;19922;-67
2023/02/16 01:15:23;;;;;;;;;;;;;;;-3.22;100.00;97774.53;5057250;28;19920;-68
2023/02/16 01:17:48;;;;;;;;;;;;;;;-3.10;100.00;97777.03;5062372;28;19923;-68
2023/02/16 01:20:18;;;;;;;;;;;;;;;-3.18;100.00;97770.28;5057747;28;19916;-68
2023/02/16 01:22:44;;;;;;;;;;;;;;;-3.10;100.00;97771.69;5062498;28;19923;-68
2023/02/16 01:25:09;;;;;;;;;;;;;;;-3.24;100.00;97767.78;5056930;28;19924;-68
2023/02/16 01:27:37;;;;;;;;;;;;;;;-3.33;100.00;97768.25;5061830;28;20266;-68
2023/02/16 01:30:10;;;;;;;;;;;;;;;-3.44;100.00;97766.47;5059457;28;19917;-71
2023/02/16 01:32:35;;;;;;;;;;;;;;;-3.57;100.00;97770.34;5062768;28;20011;-69
2023/02/16 01:35:01;;;;;;;;;;;;;;;-3.49;100.00;97774.47;5062238;28;20019;-69
2023/02/16 01:37:26;;;;;;;;;;;;;;;-3.22;100.00;97782.56;5039117;28;20693;-68
2023/02/16 01:39:51;;;;;;;;;;;;;;;-3.04;100.00;97778.72;5061714;28;20388;-68
2023/02/16 01:42:25;;;;;;;;;;;;;;;-2.96;100.00;97780.94;5057436;28;20062;-68
2023/02/16 01:44:57;;;;;;;;;;;;;;;-2.84;100.00;97764.72;5061922;28;19927;-68
2023/02/16 01:47:35;;;;;;;;;;;;;;;-2.75;100.00;97765.06;5056522;28;20223;-70
2023/02/16 01:50:21;;;;;;;;;;;;;;;-2.80;100.00;97760.47;5062459;28;20262;-68
2023/02/16 01:53:05;;;;;;;;;;;;;;;-2.72;100.00;97776.09;5076383;28;20105;-69
2023/02/16 01:55:50;;;;;;;;;;;;;;;-2.66;100.00;97765.44;5061183;28;19917;-68
2023/02/16 01:58:41;;;;;;;;;;;;;;;-3.18;100.00;97762.22;5055056;28;20285;-70
2023/02/16 02:01:27;;;;;;;;;;;;;;;-3.00;100.00;97762.97;5056976;28;19931;-68
2023/02/16 02:06:36;;;;;;;;;;;;;;;-3.43;100.00;97756.59;5061803;28;20457;-69
2023/02/16 02:09:28;;;;;;;;;;;;;;;-4.00;100.00;97753.19;5059932;28;20015;-70
2023/02/16 02:11:53;;;;;;;;;;;;;;;-4.09;100.00;97744.78;5058624;28;20039;-68
2023/02/16 02:14:25;;;;;;;;;;;;;;;-4.18;100.00;97745.44;5056013;28;20023;-68
2023/02/16 02:16:52;;;;;;;;;;;;;;;-4.23;100.00;97754.22;5061573;28;19942;-68
2023/02/16 02:19:17;;;;;;;;;;;;;;;-4.24;100.00;97736.53;5056306;28;19990;-69
2023/02/16 02:24:47;;;;;;;;;;;;;;;-3.90;100.00;97747.97;5060343;28;19925;-67
2023/02/16 02:27:22;;;;;;;;;;;;;;;-3.97;100.00;97746.53;5060075;28;19917;-67
2023/02/16 02:29:47;;;;;;;;;;;;;;;-3.92;100.00;97736.72;5071317;28;19917;-68
2023/02/16 02:32:19;;;;;;;;;;;;;;;-3.53;100.00;97735.84;5063076;28;20091;-67
2023/02/16 02:34:58;;;;;;;;;;;;;;;-3.88;100.00;97735.16;5069384;28;19917;-67
2023/02/16 02:37:26;;;;;;;;;;;;;;;-4.00;100.00;97739.78;5056939;28;20059;-68
2023/02/16 02:39:55;;;;;;;;;;;;;;;-3.89;100.00;97748.78;5062340;28;20352;-68
2023/02/16 02:42:37;;;;;;;;;;;;;;;-3.62;100.00;97746.16;5056639;28;19920;-68
2023/02/16 02:45:22;;;;;;;;;;;;;;;-3.32;100.00;97750.28;5059825;28;19931;-70
2023/02/16 02:47:48;;;;;;;;;;;;;;;-3.16;100.00;97754.75;5060768;28;20314;-68
2023/02/16 02:50:32;;;;;;;;;;;;;;;-3.06;100.00;97756.75;5057052;28;19916;-68
2023/02/16 02:53:01;;;;;;;;;;;;;;;-3.16;100.00;97760.09;5062010;28;19967;-67
2023/02/16 03:00:56;;;;;;;;;;;;;;;-3.60;100.00;97753.97;5069610;28;20357;-69
2023/02/16 03:03:26;;;;;;;;;;;;;;;-3.69;100.00;97753.59;5054365;28;19932;-67
2023/02/16 03:06:14;;;;;;;;;;;;;;;-3.78;100.00;97763.09;5061285;28;19929;-69
2023/02/16 03:08:42;;;;;;;;;;;;;;;-3.72;100.00;97754.91;5048765;28;19924;-66
2023/02/16 03:14:01;;;;;;;;;;;;;;;-3.86;100.00;97756.31;5061274;28;19978;-68
2023/02/16 03:16:30;;;;;;;;;;;;;;;-3.81;100.00;97752.91;5056521;28;20027;-67
2023/02/16 03:30:00;;;;;;;;;;;;;;;-3.64;100.00;97753.66;5063943;28;19924;-67
2023/02/16 03:32:25;;;;;;;;;;;;;;;-3.62;100.00;97761.44;5059656;28;20000;-70
2023/02/16 03:34:51;;;;;;;;;;;;;;;-3.68;100.00;97756.00;5064583;28;20020;-67
2023/02/16 03:37:16;;;;;;;;;;;;;;;-3.67;100.00;97763.00;5058446;28;19917;-67
2023/02/16 03:42:25;;;;;;;;;;;;;;;-3.54;100.00;97761.81;5060083;28;19976;-68
2023/02/16 03:44:51;;;;;;;;;;;;;;;-3.47;100.00;97757.09;5064083;28;20370;-68
2023/02/16 03:47:16;;;;;;;;;;;;;;;-3.07;100.00;97753.22;5059116;28;20285;-68
2023/02/16 03:49:41;;;;;;;;;;;;;;;-2.80;100.00;97749.75;5063805;28;19920;-68
2023/02/16 03:52:07;;;;;;;;;;;;;;;-2.84;100.00;97747.84;5059184;28;19920;-68
2023/02/16 03:54:32;;;;;;;;;;;;;;;-3.14;100.00;97762.53;5062880;28;20010;-67
2023/02/16 03:56:57;;;;;;;;;;;;;;;-3.00;100.00;97758.41;5063445;28;19927;-67
2023/02/16 03:59:23;;;;;;;;;;;;;;;-2.83;100.00;97755.59;5059290;28;20877;-68
2023/02/16 04:01:48;;;;;;;;;;;;;;;-2.62;100.00;97759.28;5063919;28;19920;-68
2023/02/16 04:04:14;;;;;;;;;;;;;;;-2.56;100.00;97762.81;5057263;28;19930;-66
2023/02/16 04:06:39;;;;;;;;;;;;;;;-2.99;100.00;97756.50;5064019;28;19921;-68
2023/02/16 04:09:04;;;;;;;;;;;;;;;-3.19;100.00;97760.59;5057061;28;19916;-68
2023/02/16 04:14:14;;;;;;;;;;;;;;;-3.30;100.00;97758.88;5060164;28;19963;-67
2023/02/16 04:16:39;;;;;;;;;;;;;;;-3.27;100.00;97758.38;5063368;28;20010;-69
2023/02/16 04:19:06;;;;;;;;;;;;;;;-3.29;100.00;97752.47;5057217;28;19922;-69
2023/02/16 04:21:31;;;;;;;;;;;;;;;-3.24;100.00;97757.06;5064112;28;19917;-66
2023/02/16 04:23:56;;;;;;;;;;;;;;;-3.19;100.00;97762.47;5064300;28;20383;-68
2023/02/16 04:26:22;;;;;;;;;;;;;;;-3.21;100.00;97762.72;5059075;28;19924;-67
2023/02/16 04:28:47;;;;;;;;;;;;;;;-3.22;100.00;97765.66;5062240;28;20373;-69
2023/02/16 04:31:12;;;;;;;;;;;;;;;-3.12;100.00;97766.56;5058448;28;19917;-67
2023/02/16 04:33:38;;;;;;;;;;;;;;;-3.06;100.00;97775.50;5063213;28;19916;-67
2023/02/16 04:36:03;;;;;;;;;;;;;;;-3.08;100.00;97762.34;5060162;28;20004;-71
2023/02/16 04:38:29;;;;;;;;;;;;;;;-2.94;100.00;97772.66;5060241;28;20282;-67
2023/02/16 04:40:54;;;;;;;;;;;;;;;-2.85;100.00;97767.66;5063160;28;19916;-69
2023/02/16 04:43:19;;;;;;;;;;;;;;;-2.67;100.00;97779.88;5058160;28;20023;-68
2023/02/16 04:45:44;;;;;;;;;;;;;;;-2.53;100.00;97786.47;5063140;28;20291;-67
2023/02/16 04:48:09;;;;;;;;;;;;;;;-2.55;100.00;97781.34;5054070;28;19917;-68
2023/02/16 04:50:35;;;;;;;;;;;;;;;-2.47;100.00;97790.00;5062625;28;19916;-67
2023/02/16 04:53:00;;;;;;;;;;;;;;;-2.54;100.00;97796.38;5062401;28;19920;-68
2023/02/16 04:55:26;;;;;;;;;;;;;;;-2.89;100.00;97786.91;5057485;28;19960;-68
2023/02/16 04:57:51;;;;;;;;;;;;;;;-3.01;100.00;97793.50;5074974;28;19958;-68
2023/02/16 05:00:16;;;;;;;;;;;;;;;-2.98;100.00;97793.78;5071837;28;19920;-67
2023/02/16 05:02:42;;;;;;;;;;;;;;;-2.93;100.00;97793.84;5071518;28;19959;-68
2023/02/16 05:05:07;;;;;;;;;;;;;;;-3.06;100.00;97791.59;5063594;28;19924;-67
2023/02/16 05:07:32;;;;;;;;;;;;;;;-3.04;100.00;97789.47;5063261;28;19983;-69
2023/02/16 05:09:58;;;;;;;;;;;;;;;-3.08;100.00;97788.31;5062623;28;19978;-69
2023/02/16 05:15:07;;;;;;;;;;;;;;;-3.01;100.00;97788.94;5056724;28;19916;-67
2023/02/16 05:17:33;;;;;;;;;;;;;;;-2.99;100.00;97794.03;5062114;28;19926;-67
2023/02/16 05:19:59;;;;;;;;;;;;;;;-2.98;100.00;97799.16;5044344;28;19986;-67
2023/02/16 05:22:24;;;;;;;;;;;;;;;-2.98;100.00;97788.44;5057823;28;19947;-67
2023/02/16 05:24:53;;;;;;;;;;;;;;;-2.99;100.00;97792.19;5069988;28;19983;-67
2023/02/16 05:27:20;;;;;;;;;;;;;;;-2.92;100.00;97789.28;5059196;28;19927;-67
2023/02/16 05:29:45;;;;;;;;;;;;;;;-2.81;100.00;97787.53;5083022;28;20161;-67
2023/02/16 05:32:11;;;;;;;;;;;;;;;-2.77;100.00;97792.13;5072420;28;19920;-67
2023/02/16 05:34:36;;;;;;;;;;;;;;;-2.66;100.00;97792.25;5061023;28;19970;-66
2023/02/16 05:37:01;;;;;;;;;;;;;;;-2.64;100.00;97790.13;5054866;28;19920;-67
2023/02/16 05:39:27;;;;;;;;;;;;;;;-2.68;100.00;97795.19;5058390;28;19967;-67
2023/02/16 05:41:52;;;;;;;;;;;;;;;-2.69;100.00;97791.66;5062963;28;19923;-67
2023/02/16 05:44:17;;;;;;;;;;;;;;;-2.77;100.00;97791.34;5039698;28;20019;-66
2023/02/16 05:46:43;;;;;;;;;;;;;;;-2.71;100.00;97798.34;5060363;28;19964;-67
2023/02/16 05:49:09;;;;;;;;;;;;;;;-2.79;100.00;97793.44;5055634;28;20011;-67
2023/02/16 05:51:34;;;;;;;;;;;;;;;-2.82;100.00;97810.06;5061690;28;19917;-66
2023/02/16 05:54:00;;;;;;;;;;;;;;;-2.78;100.00;97811.16;5061514;28;19920;-67
2023/02/16 05:56:26;;;;;;;;;;;;;;;-2.80;100.00;97811.41;5056303;28;19920;-67
2023/02/16 05:58:52;;;;;;;;;;;;;;;-2.80;100.00;97808.72;5061106;28;20342;-67
2023/02/16 06:01:18;;;;;;;;;;;;;;;-2.71;100.00;97809.09;5056822;28;19970;-67
2023/02/16 06:03:43;;;;;;;;;;;;;;;-2.72;100.00;97797.56;5062395;28;19917;-66
2023/02/16 06:06:09;;;;;;;;;;;;;;;-2.63;100.00;97805.97;5053484;28;19924;-67
2023/02/16 06:08:35;;;;;;;;;;;;;;;-2.55;100.00;97808.16;5061264;28;19917;-67
2023/02/16 06:11:00;;;;;;;;;;;;;;;-2.43;100.00;97810.69;5060469;28;19979;-67
2023/02/16 06:13:25;;;;;;;;;;;;;;;-2.25;100.00;97806.81;5055871;28;20446;-68
2023/02/16 06:15:52;;;;;;;;;;;;;;;-2.14;100.00;97808.50;5061566;28;19927;-67
2023/02/16 06:18:17;;;;;;;;;;;;;;;-2.09;100.00;97813.09;5022881;28;19956;-66
2023/02/16 06:20:42;;;;;;;;;;;;;;;-1.91;100.00;97809.19;5062296;28;20002;-67
2023/02/16 06:23:09;;;;;;;;;;;;;;;-1.86;100.00;97816.47;5038352;28;19921;-67
2023/02/16 06:25:34;;;;;;;;;;;;;;;-1.85;100.00;97818.13;5069170;28;20373;-67
2023/02/16 06:28:00;;;;;;;;;;;;;;;-1.83;100.00;97819.47;5061711;28;20106;-67
2023/02/16 06:30:25;;;;;;;;;;;;;;;-1.68;100.00;97821.44;5054992;28;19917;-66
2023/02/16 06:32:51;;;;;;;;;;;;;;;-1.63;100.00;97828.72;5063007;28;19994;-67
2023/02/16 06:35:16;;;;;;;;;;;;;;;-1.78;100.00;97824.88;5056047;28;19963;-68
2023/02/16 06:37:41;;;;;;;;;;;;;;;-1.79;100.00;97823.25;5061060;28;19931;-67
2023/02/16 06:40:08;;;;;;;;;;;;;;;-1.68;100.00;97832.16;5055669;28;19927;-64
2023/02/16 06:42:34;;;;;;;;;;;;;;;-1.44;100.00;97827.22;5062210;28;20280;-66
2023/02/16 06:44:59;;;;;;;;;;;;;;;-1.41;100.00;97831.25;5064862;28;19927;-66
2023/02/16 06:47:24;;;;;;;;;;;;;;;-1.43;100.00;97828.81;5059311;28;19916;-66
2023/02/16 06:49:50;;;;;;;;;;;;;;;-1.40;100.00;97820.25;5062653;28;19959;-67
2023/02/16 06:52:15;;;;;;;;;;;;;;;-1.61;100.00;97830.06;5056112;28;19920;-67
2023/02/16 06:54:41;;;;;;;;;;;;;;;-1.59;100.00;97827.91;5060618;28;19917;-67
2023/02/16 06:57:06;;;;;;;;;;;;;;;-1.71;100.00;97834.56;5056168;28;19924;-67
2023/02/16 06:59:31;;;;;;;;;;;;;;;-1.63;100.00;97840.25;5045896;28;19961;-66
2023/02/16 07:01:56;;;;;;;;;;;;;;;-1.58;100.00;97843.00;5046725;28;20324;-65
2023/02/16 07:04:22;;;;;;;;;;;;;;;-1.45;100.00;97849.78;5060813;28;19920;-66
2023/02/16 07:06:47;;;;;;;;;;;;;;;-1.50;100.00;97847.06;5065639;28;19916;-67
2023/02/16 07:09:12;;;;;;;;;;;;;;;-1.57;100.00;97850.00;5060232;28;19986;-67
2023/02/16 07:11:37;;;;;;;;;;;;;;;-1.54;100.00;97845.97;5064921;28;20034;-67
2023/02/16 07:14:03;;;;;;;;;;;;;;;-1.56;100.00;97843.53;5061486;28;19975;-67
2023/02/16 07:16:28;;;;;;;;;;;;;;;-1.45;100.00;97849.78;5063703;28;20365;-67
2023/02/16 07:18:53;;;;;;;;;;;;;;;-1.54;100.00;97844.06;5066041;28;19924;-66
2023/02/16 07:21:19;;;;;;;;;;;;;;;-1.56;100.00;97848.09;5060416;28;19925;-65
2023/02/16 07:23:44;;;;;;;;;;;;;;;-1.61;100.00;97858.81;5064763;28;19931;-67
2023/02/16 07:26:10;;;;;;;;;;;;;;;-1.64;100.00;97859.31;5061392;28;19956;-66
2023/02/16 07:28:35;;;;;;;;;;;;;;;-1.73;100.00;97865.19;5068585;28;19924;-67
2023/02/16 07:31:07;;;;;;;;;;;;;;;-1.71;100.00;97858.75;5067310;28;19917;-67
2023/02/16 07:33:33;;;;;;;;;;;;;;;-1.61;100.00;97874.94;5066822;28;19924;-67
2023/02/16 07:35:58;;;;;;;;;;;;;;;-1.58;100.00;97863.69;5064366;28;19917;-65
2023/02/16 07:38:23;;;;;;;;;;;;;;;-1.50;100.00;97870.44;5059559;28;20030;-66
2023/02/16 07:40:49;;;;;;;;;;;;;;;-1.56;100.00;97874.97;5064645;28;19943;-65
2023/02/16 07:43:14;;;;;;;;;;;;;;;-1.70;100.00;97874.59;5060776;28;19924;-66
2023/02/16 07:45:41;;;;;;;;;;;;;;;-1.51;100.00;97872.31;5064731;28;20453;-67
2023/02/16 07:48:06;;;;;;;;;;;;;;;-1.43;100.00;97874.50;5058648;28;19931;-67
2023/02/16 07:50:31;;;;;;;;;;;;;;;-1.40;100.00;97870.50;5046473;28;19916;-66
2023/02/16 07:52:59;;;;;;;;;;;;;;;-1.44;100.00;97866.69;5063920;28;19925;-66
2023/02/16 07:55:24;;;;;;;;;;;;;;;-1.28;100.00;97878.34;5059102;28;19939;-66
2023/02/16 07:57:54;;;;;;;;;;;;;;;-1.30;100.00;97873.22;5065057;28;19916;-65
2023/02/16 08:00:19;;;;;;;;;;;;;;;-1.39;100.00;97883.69;5061183;28;19917;-65
2023/02/16 08:02:45;;;;;;;;;;;;;;;-1.43;100.00;97881.75;5046775;28;20020;-63
2023/02/16 08:05:10;;;;;;;;;;;;;;;-1.30;100.00;97877.81;5060165;28;19920;-65
2023/02/16 08:07:35;;;;;;;;;;;;;;;-1.01;100.00;97880.91;5065406;28;20280;-66
2023/02/16 08:10:00;;;;;;;;;;;;;;;-0.95;100.00;97882.56;5063344;28;19921;-66
2023/02/16 08:12:26;;;;;;;;;;;;;;;-1.01;100.00;97884.41;5061454;28;19931;-66
2023/02/16 08:14:51;;;;;;;;;;;;;;;-1.15;100.00;97880.59;5065095;28;20309;-66
2023/02/16 08:17:16;;;;;;;;;;;;;;;-0.87;100.00;97883.91;5060810;28;20011;-66
2023/02/16 08:19:42;;;;;;;;;;;;;;;-1.06;100.00;97879.00;5064800;28;19924;-66
2023/02/16 08:22:07;;;;;;;;;;;;;;;-0.93;100.00;97879.59;5043150;28;19920;-67
2023/02/16 08:24:33;;;;;;;;;;;;;;;-0.70;100.00;97881.00;5046147;28;19921;-66
2023/02/16 08:26:59;;;;;;;;;;;;;;;-0.74;100.00;97880.72;5064916;28;19920;-66
2023/02/16 08:29:25;;;;;;;;;;;;;;;-1.06;100.00;97887.06;5042201;28;20306;-66
2023/02/16 08:31:50;;;;;;;;;;;;;;;-0.58;100.00;97884.28;5063558;28;20025;-66
2023/02/16 08:34:17;;;;;;;;;;;;;;;-0.52;100.00;97887.78;5059027;28;19917;-65
2023/02/16 08:36:46;;;;;;;;;;;;;;;-0.41;100.00;97882.19;5063747;28;19920;-67
2023/02/16 08:39:15;;;;;;;;;;;;;;;-0.14;100.00;97885.72;5059216;28;19917;-66
2023/02/16 08:41:40;;;;;;;;;;;;;;;0.02;100.00;97879.28;5063790;28;19932;-66
2023/02/16 08:44:06;;;;;;;;;;;;;;;0.08;100.00;97877.38;5058391;28;19916;-66
2023/02/16 08:46:32;;;;;;;;;;;;;;;0.08;100.00;97878.19;5064178;28;19920;-67
2023/02/16 08:48:59;;;;;;;;;;;;;;;0.03;100.00;97882.75;5065707;28;19917;-67
2023/02/16 08:51:29;;;;;;;;;;;;;;;0.11;100.00;97877.66;5074552;28;19931;-67
2023/02/16 08:53:56;;;;;;;;;;;;;;;0.33;100.00;97879.25;5063181;28;19969;-67
2023/02/16 08:56:22;;;;;;;;;;;;;;;0.37;100.00;97893.78;5059855;28;20864;-67
2023/02/16 08:58:48;;;;;;;;;;;;;;;0.30;100.00;97894.06;5064190;28;19916;-67
2023/02/16 09:01:16;;;;;;;;;;;;;;;0.10;100.00;97894.06;5040521;28;19924;-66
2023/02/16 09:03:42;;;;;;;;;;;;;;;0.33;100.00;97881.94;5063552;28;20432;-67
2023/02/16 09:06:08;;;;;;;;;;;;;;;0.37;100.00;97891.91;5058322;28;19989;-67
2023/02/16 09:08:36;;;;;;;;;;;;;;;0.56;100.00;97880.56;5064049;28;19960;-67
2023/02/16 09:11:06;;;;;;;;;;;;;;;0.83;100.00;97888.34;5062536;28;20334;-67
2023/02/16 09:13:36;;;;;;;;;;;;;;;0.98;100.00;97889.38;5064382;28;20075;-66
2023/02/16 09:16:05;;;;;;;;;;;;;;;1.19;100.00;97888.22;5065841;28;19916;-66
2023/02/16 09:18:35;;;;;;;;;;;;;;;1.33;100.00;97875.72;5066063;28;19956;-66
2023/02/16 09:21:09;;;;;;;;;;;;;;;1.11;100.00;97877.97;5066103;28;19931;-66
2023/02/16 09:23:35;;;;;;;;;;;;;;;0.99;100.00;97878.31;5063035;28;20321;-66
2023/02/16 09:26:01;;;;;;;;;;;;;;;1.29;100.00;97876.56;5063581;28;20069;-67
2023/02/16 09:28:27;;;;;;;;;;;;;;;1.50;100.00;97885.38;5059086;28;19992;-67
2023/02/16 09:30:53;;;;;;;;;;;;;;;1.70;100.00;97881.72;5063043;28;19990;-67
2023/02/16 09:33:19;;;;;;;;;;;;;;;1.76;100.00;97883.31;5059083;28;20007;-67
2023/02/16 09:35:44;;;;;;;;;;;;;;;1.82;100.00;97889.47;5063027;28;19969;-67
2023/02/16 09:38:09;;;;;;;;;;;;;;;1.99;100.00;97889.09;5057754;28;20007;-68
2023/02/16 09:40:35;;;;;;;;;;;;;;;2.02;100.00;97900.16;5063004;28;19917;-67
2023/02/16 09:43:07;;;;;;;;;;;;;;;1.56;100.00;97896.94;5062207;28;19916;-66
2023/02/16 09:45:38;;;;;;;;;;;;;;;1.59;100.00;97894.50;5061829;28;19947;-65
2023/02/16 09:48:03;;;;;;;;;;;;;;;1.88;100.00;97899.19;5043212;28;19924;-67
2023/02/16 09:50:31;;;;;;;;;;;;;;;1.80;100.00;97895.19;5062879;28;19936;-66
2023/02/16 09:53:08;;;;;;;;;;;;;;;1.97;100.00;97894.00;5062395;28;19921;-66
2023/02/16 09:55:50;;;;;;;;;;;;;;;2.08;100.00;97890.13;5063999;28;19917;-66
2023/02/16 09:58:24;;;;;;;;;;;;;;;2.11;100.00;97903.06;5067640;28;20003;-67
2023/02/16 10:00:49;;;;;;;;;;;;;;;2.44;100.00;97897.94;5067779;28;19971;-66
2023/02/16 10:03:18;;;;;;;;;;;;;;;2.52;100.00;97891.91;5067631;28;19916;-67
2023/02/16 10:06:01;;;;;;;;;;;;;;;2.72;100.00;97896.31;5067031;28;19924;-67
2023/02/16 10:08:47;;;;;;;;;;;;;;;2.62;100.00;97891.00;5075056;28;19916;-66
2023/02/16 10:14:00;;;;;;;;;;;;;;;2.57;100.00;97889.16;5075325;28;19916;-66
2023/02/16 10:16:28;;;;;;;;;;;;;;;2.74;100.00;97896.00;5057189;28;20029;-65
2023/02/16 10:18:55;;;;;;;;;;;;;;;2.88;100.00;97896.94;5063362;28;20375;-66
2023/02/16 10:21:22;;;;;;;;;;;;;;;2.56;100.00;97889.47;5056793;28;19923;-68
2023/02/16 10:23:50;;;;;;;;;;;;;;;1.87;100.00;97882.16;5060383;28;19916;-67
2023/02/16 10:26:28;;;;;;;;;;;;;;;1.52;100.00;97886.69;5058395;28;19921;-66
2023/02/16 10:28:55;;;;;;;;;;;;;;;1.98;100.00;97891.00;5063660;28;19928;-66
2023/02/16 10:31:30;;;;;;;;;;;;;;;2.45;100.00;97889.53;5057641;28;19928;-66
2023/02/16 10:34:08;;;;;;;;;;;;;;;2.93;100.00;97890.69;5066903;28;19925;-67
2023/02/16 10:37:00;;;;;;;;;;;;;;;3.27;100.00;97893.28;5069353;28;19920;-67
2023/02/16 10:39:38;;;;;;;;;;;;;;;3.38;100.00;97885.81;5054374;28;19978;-66
2023/02/16 10:42:08;;;;;;;;;;;;;;;3.48;100.00;97882.19;5065146;28;19923;-67
2023/02/16 10:44:38;;;;;;;;;;;;;;;3.33;100.00;97883.19;5068687;28;19920;-66
2023/02/16 10:47:05;;;;;;;;;;;;;;;3.20;100.00;97882.78;5066772;28;20007;-67
2023/02/16 10:49:31;;;;;;;;;;;;;;;3.55;100.00;97883.44;5068837;28;19924;-67
2023/02/16 10:51:57;;;;;;;;;;;;;;;3.73;100.00;97878.34;5067585;28;19920;-66
2023/02/16 10:54:27;;;;;;;;;;;;;;;3.72;100.00;97874.78;5064555;28;20642;-67
2023/02/16 10:56:53;;;;;;;;;;;;;;;4.30;100.00;97876.34;5088457;28;20009;-66
2023/02/16 10:59:18;;;;;;;;;;;;;;;4.29;100.00;97879.38;5067107;28;19964;-67
2023/02/16 11:01:45;;;;;;;;;;;;;;;4.41;100.00;97882.41;5070573;28;19939;-67
2023/02/16 11:04:30;;;;;;;;;;;;;;;4.89;100.00;97879.38;5064344;28;19993;-66
2023/02/16 11:07:07;;;;;;;;;;;;;;;4.94;100.00;97873.06;5072767;28;20012;-66
2023/02/16 11:09:32;;;;;;;;;;;;;;;4.74;100.00;97866.09;5069017;28;19921;-66
2023/02/16 11:11:58;;;;;;;;;;;;;;;4.04;100.00;97856.19;5068298;28;19927;-66
2023/02/16 11:14:27;;;;;;;;;;;;;;;3.02;100.00;97843.75;5062688;28;20371;-67
2023/02/16 11:17:06;;;;;;;;;;;;;;;3.96;100.00;97852.22;5068182;28;19929;-66
2023/02/16 11:19:33;;;;;;;;;;;;;;;4.60;100.00;97853.31;5067004;28;19924;-66
2023/02/16 11:21:58;;;;;;;;;;;;;;;5.07;100.00;97839.66;5068224;28;19985;-68
2023/02/16 11:24:24;;;;;;;;;;;;;;;4.48;100.00;97841.31;5062912;28;19917;-67
2023/02/16 11:27:06;;;;;;;;;;;;;;;3.70;100.00;97835.56;5082361;28;19917;-67
2023/02/16 11:29:32;;;;;;;;;;;;;;;3.71;100.00;97829.84;5067355;28;19916;-67
2023/02/16 11:31:58;;;;;;;;;;;;;;;4.39;100.00;97827.63;5067398;28;19970;-67
2023/02/16 11:34:29;;;;;;;;;;;;;;;4.65;100.00;97827.19;5063695;28;20447;-66
2023/02/16 11:37:21;;;;;;;;;;;;;;;5.71;100.00;97825.28;5067860;28;19917;-67
2023/02/16 11:39:48;;;;;;;;;;;;;;;6.48;100.00;97817.97;5064183;28;19916;-67
2023/02/16 11:42:34;;;;;;;;;;;;;;;6.87;99.85;97819.09;5063473;28;20080;-67
2023/02/16 11:45:00;;;;;;;;;;;;;;;6.91;93.76;97816.56;5065796;28;19921;-67
2023/02/16 11:47:26;;;;;;;;;;;;;;;6.66;91.34;97807.97;5059111;28;19927;-67
2023/02/16 11:50:07;;;;;;;;;;;;;;;7.47;91.44;97806.72;5064457;28;20003;-67
2023/02/16 11:52:32;;;;;;;;;;;;;;;7.46;88.64;97810.59;5062982;28;19920;-67
2023/02/16 11:54:59;;;;;;;;;;;;;;;7.33;90.19;97803.34;5042939;28;19931;-67
2023/02/16 11:57:27;;;;;;;;;;;;;;;6.89;94.52;97797.81;5058349;28;19917;-68
2023/02/16 11:59:53;;;;;;;;;;;;;;;7.02;92.16;97793.34;5063948;28;19924;-68
2023/02/16 12:02:39;;;;;;;;;;;;;;;8.03;90.71;97795.97;5058457;28;19926;-67
2023/02/16 12:05:20;;;;;;;;;;;;;;;8.38;86.27;97796.72;5027435;28;19921;-68
2023/02/16 12:08:13;;;;;;;;;;;;;;;7.38;93.92;97792.28;5063873;28;19978;-68
2023/02/16 12:11:01;;;;;;;;;;;;;;;8.37;88.12;97781.50;5061241;28;19920;-67
2023/02/16 12:13:30;;;;;;;;;;;;;;;9.22;83.19;97785.31;5059923;28;19978;-67
2023/02/16 12:16:21;;;;;;;;;;;;;;;9.12;81.81;97777.50;5064332;28;20410;-66
2023/02/16 12:18:46;;;;;;;;;;;;;;;9.08;82.31;97780.09;5039519;28;19917;-67
2023/02/16 12:21:31;;;;;;;;;;;;;;;8.81;82.91;97784.09;5059783;28;19920;-67
2023/02/16 12:24:11;;;;;;;;;;;;;;;8.97;84.32;97770.69;5064079;28;20368;-65
2023/02/16 12:26:50;;;;;;;;;;;;;;;8.57;85.84;97782.75;5063857;28;20009;-67
2023/02/16 12:29:23;;;;;;;;;;;;;;;8.80;84.31;97785.22;5058817;28;19916;-67
2023/02/16 12:31:51;;;;;;;;;;;;;;;8.36;84.20;97770.91;5086049;28;19916;-67
2023/02/16 12:34:19;;;;;;;;;;;;;;;8.63;86.45;97768.91;5070822;28;19916;-67
2023/02/16 12:36:50;;;;;;;;;;;;;;;8.62;83.38;97754.44;5072672;28;20273;-67
2023/02/16 12:39:29;;;;;;;;;;;;;;;8.66;83.87;97760.88;5064071;28;19974;-67
2023/02/16 12:42:00;;;;;;;;;;;;;;;8.37;85.09;97756.09;5045784;28;20327;-66
2023/02/16 12:44:31;;;;;;;;;;;;;;;7.50;88.92;97756.25;5057298;28;20348;-66
2023/02/16 12:47:01;;;;;;;;;;;;;;;6.97;94.61;97748.00;5063211;28;20348;-66
2023/02/16 12:49:33;;;;;;;;;;;;;;;6.36;97.66;97750.53;5058588;28;19923;-66
2023/02/16 12:52:17;;;;;;;;;;;;;;;6.02;100.00;97734.81;5063876;28;19970;-66
2023/02/16 12:54:52;;;;;;;;;;;;;;;6.08;100.00;97739.00;5063002;28;19966;-66
2023/02/16 12:57:19;;;;;;;;;;;;;;;6.83;100.00;97728.28;5038928;28;19916;-67
2023/02/16 12:59:44;;;;;;;;;;;;;;;7.84;93.29;97731.66;5062965;28;19916;-67
2023/02/16 13:02:26;;;;;;;;;;;;;;;8.24;89.44;97728.69;5057936;28;19923;-67
2023/02/16 13:05:02;;;;;;;;;;;;;;;7.95;90.63;97720.44;5062666;28;20261;-67
2023/02/16 13:07:34;;;;;;;;;;;;;;;8.48;85.82;97719.19;5040839;28;20346;-67
2023/02/16 13:10:02;;;;;;;;;;;;;;;8.41;87.24;97716.13;5062727;28;19928;-67
2023/02/16 13:12:30;;;;;;;;;;;;;;;8.32;86.38;97718.06;5075135;28;19924;-67
2023/02/16 13:15:01;;;;;;;;;;;;;;;8.35;85.88;97704.56;5062251;28;19924;-67
2023/02/16 13:17:32;;;;;;;;;;;;;;;8.06;88.79;97707.25;5057481;28;19923;-67
2023/02/16 13:19:57;;;;;;;;;;;;;;;7.02;91.00;97701.56;5062179;28;19920;-67
2023/02/16 13:22:28;;;;;;;;;;;;;;;6.95;95.39;97701.22;5057202;28;20412;-65
2023/02/16 13:24:53;;;;;;;;;;;;;;;6.88;98.03;97688.06;5043104;28;19920;-67
2023/02/16 13:27:22;;;;;;;;;;;;;;;6.75;99.37;97694.44;5056417;28;20034;-67
2023/02/16 13:29:53;;;;;;;;;;;;;;;6.83;100.00;97687.44;5062353;28;19921;-67
2023/02/16 13:32:27;;;;;;;;;;;;;;;6.88;100.00;97681.84;5072287;28;19966;-67